Time;durP1;ratioP1;P1;durP2;ratioP2;P2;SDS_P1;SDS_P2;PMS_P1;PMS_P2;Temp;Humidity;BMP_temperature;BMP_pressure;BME280_temperature;BME280_humidity;BME280_pressure;Samples;Min_cycle;Max_cycle;Signal;HPM_P1;HPM_P2
2021/08/21 00:02:18;;;;;;;19.52;12.05;;;;;;;;;;3563619;40;20087;-68
2021/08/21 00:04:45;;;;;;;17.83;11.52;;;;;;;;;;3563996;40;20040;-68
2021/08/21 00:07:11;;;;;;;18.23;11.25;;;;;;;;;;3562950;40;20049;-68
2021/08/21 00:09:37;;;;;;;17.60;11.48;;;;;;;;;;3561733;40;20795;-68
2021/08/21 00:12:03;;;;;;;20.63;11.85;;;;;;;;;;3561076;40;20606;-68
2021/08/21 00:14:29;;;;;;;18.85;11.20;;;;;;;;;;3562079;40;20029;-68
2021/08/21 00:16:55;;;;;;;18.17;10.45;;;;;;;;;;3562825;40;20434;-68
2021/08/21 00:19:21;;;;;;;18.98;11.13;;;;;;;;;;3563982;40;20642;-68
2021/08/21 00:21:48;;;;;;;16.30;10.45;;;;;;;;;;3563747;40;20039;-68
2021/08/21 00:24:14;;;;;;;18.10;10.82;;;;;;;;;;3565605;40;20037;-68
2021/08/21 00:26:40;;;;;;;19.20;11.57;;;;;;;;;;3566498;40;20025;-68
2021/08/21 00:29:06;;;;;;;18.63;11.55;;;;;;;;;;3563421;40;20065;-68
2021/08/21 00:31:32;;;;;;;18.58;11.90;;;;;;;;;;3567333;40;20077;-68
2021/08/21 00:33:58;;;;;;;23.10;12.00;;;;;;;;;;3568285;40;20040;-68
2021/08/21 00:36:24;;;;;;;19.13;11.18;;;;;;;;;;3563749;40;20033;-68
2021/08/21 00:38:51;;;;;;;16.25;11.10;;;;;;;;;;3562127;40;20049;-68
2021/08/21 00:41:17;;;;;;;18.38;11.70;;;;;;;;;;3562307;40;20079;-68
2021/08/21 00:43:43;;;;;;;17.55;11.73;;;;;;;;;;3565451;40;20087;-68
2021/08/21 00:46:09;;;;;;;18.25;10.93;;;;;;;;;;3568121;40;20041;-68
2021/08/21 00:48:35;;;;;;;17.85;10.82;;;;;;;;;;3566506;40;20038;-68
2021/08/21 00:51:02;;;;;;;16.58;10.48;;;;;;;;;;3564763;40;20033;-68
2021/08/21 00:53:28;;;;;;;19.30;11.18;;;;;;;;;;3565171;40;20040;-68
2021/08/21 00:55:55;;;;;;;16.33;11.20;;;;;;;;;;3563693;40;20034;-69
2021/08/21 00:58:21;;;;;;;16.20;10.43;;;;;;;;;;3562009;40;20057;-68
2021/08/21 01:00:48;;;;;;;14.05;9.68;;;;;;;;;;3561265;40;20061;-68
2021/08/21 01:03:14;;;;;;;16.85;10.80;;;;;;;;;;3560001;40;20702;-67
2021/08/21 01:05:41;;;;;;;14.45;9.98;;;;;;;;;;3561929;40;20136;-68
2021/08/21 01:08:07;;;;;;;16.00;10.63;;;;;;;;;;3561497;40;20180;-68
2021/08/21 01:10:45;;;;;;;14.70;10.30;;;;;;;;;;3566912;40;20095;-68
2021/08/21 01:13:11;;;;;;;14.32;9.38;;;;;;;;;;3567644;40;20041;-68
2021/08/21 01:15:37;;;;;;;14.98;10.57;;;;;;;;;;3565961;40;20107;-68
2021/08/21 01:18:10;;;;;;;17.00;11.00;;;;;;;;;;3566113;40;20402;-68
2021/08/21 01:20:37;;;;;;;13.63;9.75;;;;;;;;;;3564505;40;20666;-68
2021/08/21 01:23:05;;;;;;;19.02;9.98;;;;;;;;;;3563047;40;20109;-68
2021/08/21 01:25:49;;;;;;;14.23;9.48;;;;;;;;;;3563756;40;20053;-68
2021/08/21 01:28:17;;;;;;;16.52;10.60;;;;;;;;;;3569742;40;20045;-68
2021/08/21 01:31:01;;;;;;;13.23;7.75;;;;;;;;;;3570174;40;20056;-68
2021/08/21 01:33:34;;;;;;;13.55;7.88;;;;;;;;;;3568887;40;20411;-68
2021/08/21 01:36:01;;;;;;;16.02;9.32;;;;;;;;;;3568097;40;20052;-69
2021/08/21 01:38:29;;;;;;;16.13;10.50;;;15.30;99.90;;;;;;3566259;40;20100;-69
2021/08/21 01:41:14;;;;;;;13.85;9.30;;;;;;;;;;3566145;40;20767;-69
2021/08/21 01:43:41;;;;;;;17.20;10.07;;;;;;;;;;3563995;40;20034;-68
2021/08/21 01:46:08;;;;;;;15.52;9.95;;;;;;;;;;3562635;40;20045;-69
2021/08/21 01:48:38;;;;;;;13.05;9.48;;;;;;;;;;3561953;40;20046;-69
2021/08/21 01:51:04;;;;;;;16.55;9.77;;;;;;;;;;3561395;40;20912;-68
2021/08/21 01:53:30;;;;;;;17.42;10.93;;;;;;;;;;3560917;40;20033;-69
2021/08/21 01:55:56;;;;;;;17.55;10.25;;;;;;;;;;3559932;40;20751;-69
2021/08/21 01:58:41;;;;;;;13.63;10.10;;;;;;;;;;3567840;40;20059;-68
2021/08/21 02:01:23;;;;;;;14.65;9.75;;;;;;;;;;3567835;40;20153;-67
2021/08/21 02:04:15;;;;;;;16.45;10.52;;;;;;;;;;3566980;40;20060;-68
2021/08/21 02:06:42;;;;;;;14.15;9.80;;;;;;;;;;3566442;40;20049;-68
2021/08/21 02:09:10;;;;;;;17.77;9.57;;;;;;;;;;3563939;40;20119;-69
2021/08/21 02:11:36;;;;;;;13.30;8.95;;;;;;;;;;3564506;40;20679;-68
2021/08/21 02:14:02;;;;;;;17.33;9.57;;;;;;;;;;3562751;40;20040;-68
2021/08/21 02:16:28;;;;;;;12.98;8.20;;;;;;;;;;3553072;40;20045;-68
2021/08/21 02:18:54;;;;;;;16.25;9.35;;;;;;;;;;3560697;40;20383;-69
2021/08/21 02:21:35;;;;;;;11.80;8.70;;;;;;;;;;3560496;40;20033;-68
2021/08/21 02:24:01;;;;;;;15.88;9.65;;;;;;;;;;3553978;40;20127;-68
2021/08/21 02:26:27;;;;;;;21.05;9.85;;;;;;;;;;3561596;40;20052;-69
2021/08/21 02:29:00;;;;;;;15.15;10.07;;;;;;;;;;3566692;40;20334;-68
2021/08/21 02:31:27;;;;;;;17.27;10.40;;;;;;;;;;3565616;40;20044;-68
2021/08/21 02:33:53;;;;;;;16.98;10.32;;;;;;;;;;3565028;40;20092;-69
2021/08/21 02:36:19;;;;;;;14.60;10.95;;;;;;;;;;3563994;40;20067;-67
2021/08/21 02:38:45;;;;;;;17.35;11.75;;;15.90;99.90;;;;;;3562530;40;20768;-66
2021/08/21 02:41:11;;;;;;;20.17;11.70;;;;;;;;;;3562050;40;20030;-67
2021/08/21 02:43:37;;;;;;;20.73;12.93;;;;;;;;;;3561714;40;20418;-67
2021/08/21 02:46:03;;;;;;;20.75;12.73;;;;;;;;;;3560189;40;20038;-67
2021/08/21 02:48:29;;;;;;;17.65;12.00;;;;;;;;;;3560088;40;20069;-68
2021/08/21 02:50:55;;;;;;;18.42;12.32;;;;;;;;;;3561279;40;20028;-67
2021/08/21 02:53:21;;;;;;;20.73;12.13;;;;;;;;;;3563227;40;20119;-67
2021/08/21 02:55:47;;;;;;;22.00;13.30;;;;;;;;;;3563470;40;20421;-67
2021/08/21 02:58:15;;;;;;;18.15;11.43;;;;;;;;;;3563593;40;20116;-68
2021/08/21 03:00:43;;;;;;;21.70;13.02;;;14.50;99.90;;;;;;3565423;40;20603;-67
2021/08/21 03:03:12;;;;;;;17.42;11.20;;;;;;;;;;3565531;40;20141;-67
2021/08/21 03:05:40;;;;;;;18.50;11.65;;;;;;;;;;3563141;40;20161;-67
2021/08/21 03:08:07;;;;;;;20.27;12.73;;;;;;;;;;3564340;40;20429;-68
2021/08/21 03:10:41;;;;;;;22.65;13.20;;;;;;;;;;3560884;40;20068;-67
2021/08/21 03:13:07;;;;;;;19.33;12.80;;;;;;;;;;3559587;40;20724;-67
2021/08/21 03:15:34;;;;;;;22.65;13.10;;;;;;;;;;3560987;40;20033;-67
2021/08/21 03:18:00;;;;;;;19.23;12.75;;;;;;;;;;3568527;40;20438;-67
2021/08/21 03:20:27;;;;;;;21.48;12.32;;;;;;;;;;3564141;40;20098;-68
2021/08/21 03:22:53;;;;;;;19.85;10.98;;;;;;;;;;3566643;40;20107;-68
2021/08/21 03:25:24;;;;;;;18.65;11.45;;;;;;;;;;3566094;40;20028;-67
2021/08/21 03:27:51;;;;;;;18.23;10.30;;;;;;;;;;3566931;40;20057;-67
2021/08/21 03:30:17;;;;;;;21.80;12.73;;;;;;;;;;3569478;40;20606;-67
2021/08/21 03:32:43;;;;;;;23.88;14.95;;;;;;;;;;3564658;40;20048;-67
2021/08/21 03:35:11;;;;;;;21.98;12.57;;;;;;;;;;3563216;40;20638;-68
2021/08/21 03:37:37;;;;;;;19.38;11.48;;;;;;;;;;3563841;40;20720;-67
2021/08/21 03:40:03;;;;;;;22.67;13.60;;;;;;;;;;3561859;40;20029;-67
2021/08/21 03:42:30;;;;;;;21.05;12.75;;;;;;;;;;3562851;40;20486;-67
2021/08/21 03:45:04;;;;;;;26.33;15.27;;;;;;;;;;3569193;40;20041;-67
2021/08/21 03:47:31;;;;;;;24.98;14.23;;;;;;;;;;3560085;40;20102;-67
2021/08/21 03:49:57;;;;;;;24.00;13.98;;;;;;;;;;3566569;40;20036;-67
2021/08/21 03:52:23;;;;;;;21.40;13.80;;;;;;;;;;3566962;40;20047;-68
2021/08/21 03:54:50;;;;;;;21.02;13.38;;;;;;;;;;3568373;40;20041;-67
2021/08/21 03:57:17;;;;;;;20.80;12.98;;;;;;;;;;3567195;40;20034;-67
2021/08/21 03:59:43;;;;;;;20.40;13.55;;;;;;;;;;3563715;40;20041;-67
2021/08/21 04:02:12;;;;;;;22.02;13.70;;;;;;;;;;3562928;40;20067;-67
2021/08/21 04:04:39;;;;;;;21.52;11.55;;;;;;;;;;3564057;40;20045;-67
2021/08/21 04:07:09;;;;;;;19.52;11.40;;;;;;;;;;3562529;40;20055;-67
2021/08/21 04:09:35;;;;;;;15.73;10.93;;;;;;;;;;3568583;40;20306;-69
2021/08/21 04:12:01;;;;;;;16.48;10.25;;;;;;;;;;3568960;40;20029;-68
2021/08/21 04:14:33;;;;;;;13.50;8.70;;;;;;;;;;3570008;40;20122;-68
2021/08/21 04:16:59;;;;;;;12.88;9.13;;;;;;;;;;3566400;40;20075;-68
2021/08/21 04:19:25;;;;;;;13.25;7.70;;;;;;;;;;3568461;40;20095;-67
2021/08/21 04:21:56;;;;;;;10.98;7.40;;;;;;;;;;3571235;40;20119;-67
2021/08/21 04:24:46;;;;;;;12.70;7.43;;;;;;;;;;3568214;40;20474;-67
2021/08/21 04:27:12;;;;;;;10.77;7.03;;;;;;;;;;3570077;40;20103;-67
2021/08/21 04:29:39;;;;;;;9.73;7.55;;;;;;;;;;3570005;40;20056;-68
2021/08/21 04:32:07;;;;;;;11.20;7.63;;;;;;;;;;3567119;40;20395;-67
2021/08/21 04:34:35;;;;;;;10.48;7.28;;;14.00;99.90;;;;;;3563685;40;20403;-67
2021/08/21 04:37:03;;;;;;;10.13;7.95;;;;;;;;;;3569509;40;20044;-68
2021/08/21 04:39:30;;;;;;;10.88;7.72;;;;;;;;;;3568911;40;20046;-67
2021/08/21 04:41:56;;;;;;;11.93;8.23;;;;;;;;;;3567264;40;20044;-67
2021/08/21 04:44:23;;;;;;;12.13;7.90;;;;;;;;;;3567893;40;20103;-67
2021/08/21 04:46:49;;;;;;;10.57;6.88;;;;;;;;;;3568159;40;20099;-67
2021/08/21 04:49:19;;;;;;;9.07;6.55;;;;;;;;;;3565096;40;20422;-67
2021/08/21 04:51:45;;;;;;;14.55;8.60;;;;;;;;;;3567338;40;20038;-67
2021/08/21 04:54:14;;;;;;;15.52;8.18;;;;;;;;;;3570824;40;20075;-67
2021/08/21 04:56:40;;;;;;;13.02;7.78;;;;;;;;;;3570336;40;20421;-67
2021/08/21 04:59:21;;;;;;;10.20;7.30;;;14.20;99.90;;;;;;3568470;40;20385;-67
2021/08/21 05:01:51;;;;;;;9.73;7.07;;;;;;;;;;3563896;40;20022;-67
2021/08/21 05:04:19;;;;;;;9.52;6.65;;;;;;;;;;3566318;40;20664;-66
2021/08/21 05:06:46;;;;;;;8.90;6.47;;;;;;;;;;3566734;40;20053;-67
2021/08/21 05:09:12;;;;;;;9.90;6.18;;;;;;;;;;3566189;40;20615;-67
2021/08/21 05:11:38;;;;;;;10.73;6.75;;;;;;;;;;3568665;40;20041;-67
2021/08/21 05:14:05;;;;;;;9.10;7.07;;;;;;;;;;3568419;40;20036;-67
2021/08/21 05:16:31;;;;;;;9.23;6.53;;;;;;;;;;3573284;40;20072;-67
2021/08/21 05:21:58;;;;;;;5.80;4.55;;;;;;;;;;3566608;40;20057;-67
2021/08/21 05:24:24;;;;;;;8.70;4.38;;;;;;;;;;3568517;40;20025;-66
2021/08/21 05:26:50;;;;;;;7.80;3.83;;;;;;;;;;3568602;40;20036;-67
2021/08/21 05:29:16;;;;;;;6.57;4.80;;;;;;;;;;3557974;40;20045;-67
2021/08/21 05:31:42;;;;;;;5.05;4.40;;;;;;;;;;3567186;40;20032;-67
2021/08/21 05:34:09;;;;;;;9.43;4.90;;;;;;;;;;3569025;40;20049;-67
2021/08/21 05:36:35;;;;;;;7.28;4.85;;;;;;;;;;3567330;40;20596;-67
2021/08/21 05:39:01;;;;;;;7.38;5.70;;;;;;;;;;3569151;40;20038;-67
2021/08/21 05:41:27;;;;;;;10.23;6.88;;;;;;;;;;3569137;40;20065;-67
2021/08/21 05:43:53;;;;;;;9.60;6.38;;;14.90;99.90;;;;;;3571137;40;20087;-67
2021/08/21 05:46:19;;;;;;;9.00;6.85;;;15.60;99.90;;;;;;3570343;40;20708;-67
2021/08/21 05:48:45;;;;;;;8.30;5.90;;;;;;;;;;3571201;40;20069;-67
2021/08/21 05:51:11;;;;;;;9.75;6.85;;;;;;;;;;3563251;40;20036;-68
2021/08/21 05:53:37;;;;;;;11.77;8.30;;;;;;;;;;3570904;40;20033;-67
2021/08/21 05:56:03;;;;;;;11.77;8.15;;;;;;;;;;3569089;40;20036;-68
2021/08/21 05:58:28;;;;;;;12.35;8.88;;;;;;;;;;3566574;40;20029;-68
2021/08/21 06:00:54;;;;;;;12.43;9.02;;;;;;;;;;3568107;40;20149;-68
2021/08/21 06:03:20;;;;;;;12.82;9.25;;;;;;;;;;3568178;40;20036;-67
2021/08/21 06:05:46;;;;;;;15.48;10.30;;;16.20;99.90;;;;;;3568452;40;20040;-68
2021/08/21 06:08:12;;;;;;;14.30;8.60;;;;;;;;;;3564917;40;20061;-68
2021/08/21 06:10:44;;;;;;;14.82;10.82;;;;;;;;;;3561622;40;20041;-67
2021/08/21 06:13:14;;;;;;;16.98;11.52;;;;;;;;;;3570198;40;20044;-67
2021/08/21 06:15:40;;;;;;;18.20;9.55;;;;;;;;;;3570852;40;20040;-67
2021/08/21 06:18:06;;;;;;;12.70;9.20;;;;;;;;;;3565015;40;20415;-67
2021/08/21 06:20:32;;;;;;;15.88;10.23;;;;;;;;;;3565653;40;20334;-68
2021/08/21 06:22:58;;;;;;;15.25;10.18;;;;;;;;;;3564573;40;20028;-67
2021/08/21 06:25:24;;;;;;;20.65;11.18;;;;;;;;;;3567294;40;20180;-68
2021/08/21 06:27:51;;;;;;;15.68;9.95;;;;;;;;;;3565742;40;20088;-67
2021/08/21 06:30:17;;;;;;;13.63;10.32;;;;;;;;;;3568783;40;20683;-68
2021/08/21 06:32:43;;;;;;;16.10;10.93;;;;;;;;;;3568700;40;20029;-67
2021/08/21 06:35:09;;;;;;;14.95;10.10;;;;;;;;;;3567366;40;20509;-68
2021/08/21 06:37:35;;;;;;;21.05;10.57;;;;;;;;;;3569486;40;20390;-68
2021/08/21 06:40:01;;;;;;;15.38;9.93;;;;;;;;;;3568766;40;20036;-68
2021/08/21 06:42:27;;;;;;;19.13;11.02;;;;;;;;;;3565756;40;20050;-68
2021/08/21 06:45:09;;;;;;;20.60;11.07;;;;;;;;;;3567696;40;20036;-68
2021/08/21 06:47:35;;;;;;;14.25;9.43;;;;;;;;;;3568499;40;20189;-68
2021/08/21 06:50:01;;;;;;;18.23;11.02;;;;;;;;;;3566875;40;20399;-68
2021/08/21 06:52:27;;;;;;;14.88;10.40;;;;;;;;;;3567339;40;20066;-68
2021/08/21 06:54:53;;;;;;;15.85;11.20;;;;;;;;;;3567768;40;20014;-69
2021/08/21 06:57:19;;;;;;;15.13;9.48;;;;;;;;;;3568521;40;20040;-68
2021/08/21 06:59:45;;;;;;;14.93;9.07;;;;;;;;;;3567711;40;20037;-68
2021/08/21 07:02:11;;;;;;;12.45;7.93;;;;;;;;;;3565112;40;20029;-68
2021/08/21 07:04:37;;;;;;;15.35;10.02;;;;;;;;;;3565098;40;20115;-68
2021/08/21 07:07:03;;;;;;;14.27;9.32;;;;;;;;;;3566165;40;20066;-68
2021/08/21 07:09:29;;;;;;;14.82;8.65;;;;;;;;;;3569100;40;20045;-68
2021/08/21 07:11:55;;;;;;;14.77;9.50;;;;;;;;;;3570932;40;20151;-68
2021/08/21 07:14:21;;;;;;;20.50;8.70;;;;;;;;;;3569533;40;20037;-68
2021/08/21 07:16:47;;;;;;;13.65;8.43;;;;;;;;;;3567464;40;20033;-68
2021/08/21 07:19:13;;;;;;;12.68;7.70;;;;;;;;;;3567809;40;20026;-68
2021/08/21 07:21:39;;;;;;;14.00;9.20;;;;;;;;;;3568332;40;20025;-68
2021/08/21 07:24:05;;;;;;;12.05;7.70;;;;;;;;;;3566760;40;20123;-68
2021/08/21 07:26:33;;;;;;;14.80;7.95;;;;;;;;;;3565731;40;20033;-68
2021/08/21 07:28:59;;;;;;;13.65;7.75;;;;;;;;;;3566217;40;20052;-68
2021/08/21 07:31:24;;;;;;;12.60;8.63;;;;;;;;;;3566721;40;20029;-68
2021/08/21 07:33:50;;;;;;;15.32;7.97;;;;;;;;;;3570152;40;20323;-68
2021/08/21 07:36:16;;;;;;;13.35;7.40;;;;;;;;;;3567136;40;20404;-68
2021/08/21 07:38:42;;;;;;;11.20;8.02;;;;;;;;;;3569467;40;20044;-68
2021/08/21 07:41:08;;;;;;;15.27;8.80;;;;;;;;;;3568182;40;20686;-68
2021/08/21 07:43:34;;;;;;;13.55;8.57;;;;;;;;;;3568775;40;20029;-68
2021/08/21 07:46:00;;;;;;;14.30;8.93;;;;;;;;;;3567422;40;20154;-69
2021/08/21 07:48:26;;;;;;;11.23;7.70;;;;;;;;;;3566408;40;20040;-69
2021/08/21 07:50:52;;;;;;;11.07;6.20;;;;;;;;;;3566217;40;20030;-70
2021/08/21 07:53:18;;;;;;;10.40;6.20;;;;;;;;;;3566903;40;20086;-69
2021/08/21 07:55:44;;;;;;;9.13;6.40;;;;;;;;;;3562822;40;20142;-69
2021/08/21 07:58:10;;;;;;;11.85;7.35;;;;;;;;;;3562442;40;20041;-68
2021/08/21 08:00:36;;;;;;;9.18;6.75;;;;;;;;;;3564325;40;20057;-69
2021/08/21 08:03:02;;;;;;;13.63;7.82;;;;;;;;;;3565105;40;20033;-69
2021/08/21 08:05:28;;;;;;;10.75;6.28;;;;;;;;;;3566443;40;20033;-69
2021/08/21 08:07:54;;;;;;;9.50;6.47;;;;;;;;;;3566083;40;20119;-69
2021/08/21 08:10:20;;;;;;;13.70;6.00;;;;;;;;;;3566247;40;20029;-71
2021/08/21 08:12:46;;;;;;;11.18;6.70;;;;;;;;;;3566250;40;20037;-70
2021/08/21 08:15:12;;;;;;;9.82;5.25;;;;;;;;;;3565242;40;20057;-70
2021/08/21 08:17:38;;;;;;;8.18;5.82;;;;;;;;;;3565525;40;20437;-70
2021/08/21 08:20:06;;;;;;;10.23;5.90;;;;;;;;;;3563538;40;20037;-70
2021/08/21 08:22:32;;;;;;;10.05;6.75;;;;;;;;;;3571593;40;20045;-70
2021/08/21 08:24:58;;;;;;;12.68;7.20;;;;;;;;;;3570522;40;20044;-70
2021/08/21 08:27:24;;;;;;;11.45;6.55;;;;;;;;;;3569388;40;20489;-71
2021/08/21 08:29:50;;;;;;;9.75;5.78;;;;;;;;;;3564822;40;20470;-71
2021/08/21 08:32:16;;;;;;;9.85;5.43;;;;;;;;;;3565465;40;20029;-71
2021/08/21 08:34:42;;;;;;;12.13;5.88;;;;;;;;;;3566704;40;20041;-70
2021/08/21 08:37:12;;;;;;;10.63;5.93;;;;;;;;;;3568600;40;20528;-71
2021/08/21 08:39:38;;;;;;;9.15;6.40;;;;;;;;;;3565945;40;20025;-70
2021/08/21 08:42:04;;;;;;;15.38;8.75;;;;;;;;;;3563316;40;20029;-71
2021/08/21 08:44:30;;;;;;;9.05;5.30;;;;;;;;;;3565841;40;20061;-71
2021/08/21 08:46:56;;;;;;;8.77;6.00;;;;;;;;;;3562341;40;20037;-71
2021/08/21 08:49:22;;;;;;;19.00;11.05;;;;;;;;;;3562324;40;20045;-71
2021/08/21 08:51:48;;;;;;;6.68;5.15;;;;;;;;;;3565091;40;20312;-71
2021/08/21 08:54:14;;;;;;;9.52;6.38;;;;;;;;;;3563790;40;20029;-73
2021/08/21 08:56:40;;;;;;;14.63;5.63;;;;;;;;;;3563390;40;20400;-71
2021/08/21 08:59:06;;;;;;;10.32;6.28;;;;;;;;;;3565340;40;20415;-71
2021/08/21 09:01:32;;;;;;;7.90;5.43;;;;;;;;;;3567052;40;20075;-72
2021/08/21 09:03:57;;;;;;;7.72;4.90;;;;;;;;;;3567445;40;20029;-72
2021/08/21 09:06:23;;;;;;;11.10;5.22;;;;;;;;;;3559339;40;20041;-71
2021/08/21 09:08:49;;;;;;;8.77;5.18;;;;;;;;;;3568293;40;20048;-71
2021/08/21 09:11:15;;;;;;;8.38;4.50;;;;;;;;;;3570145;40;20037;-72
2021/08/21 09:13:41;;;;;;;6.85;4.60;;;;;;;;;;3571583;40;20036;-72
2021/08/21 09:16:07;;;;;;;8.73;4.43;;;;;;;;;;3568111;40;20025;-71
2021/08/21 09:18:33;;;;;;;7.78;4.85;;;;;;;;;;3568272;40;20033;-71
2021/08/21 09:20:59;;;;;;;5.95;3.85;;;;;;;;;;3569103;40;20040;-71
2021/08/21 09:23:25;;;;;;;6.22;4.15;;;;;;;;;;3569364;40;20033;-72
2021/08/21 09:25:51;;;;;;;6.13;3.70;;;;;;;;;;3566611;40;20029;-71
2021/08/21 09:28:17;;;;;;;9.57;5.30;;;;;;;;;;3565782;40;20029;-72
2021/08/21 09:30:43;;;;;;;9.82;5.63;;;;;;;;;;3565653;40;20057;-72
2021/08/21 09:33:09;;;;;;;9.50;5.40;;;;;;;;;;3564269;40;20731;-72
2021/08/21 09:35:35;;;;;;;9.13;4.47;;;;;;;;;;3564935;40;20450;-69
2021/08/21 09:38:02;;;;;;;6.82;3.00;;;;;;;;;;3568373;40;20033;-72
2021/08/21 09:40:28;;;;;;;7.72;4.60;;;;;;;;;;3562056;40;20040;-71
2021/08/21 09:42:54;;;;;;;8.85;4.03;;;;;;;;;;3561543;40;20036;-72
2021/08/21 09:45:21;;;;;;;11.80;6.05;;;;;;;;;;3565901;40;20021;-71
2021/08/21 09:47:46;;;;;;;8.32;4.72;;;;;;;;;;3565202;40;20038;-73
2021/08/21 09:50:15;;;;;;;7.22;5.15;;;;;;;;;;3564666;40;20040;-72
2021/08/21 09:52:41;;;;;;;8.43;4.60;;;;;;;;;;3566170;40;20045;-71
2021/08/21 09:55:07;;;;;;;6.97;4.53;;;;;;;;;;3565020;40;20039;-71
2021/08/21 09:57:33;;;;;;;8.20;4.78;;;;;;;;;;3564431;40;20067;-70
2021/08/21 10:00:00;;;;;;;8.65;5.22;;;;;;;;;;3564247;40;20036;-70
2021/08/21 10:02:26;;;;;;;10.85;4.70;;;;;;;;;;3560996;40;20060;-71
2021/08/21 10:04:52;;;;;;;11.20;5.25;;;25.00;99.90;;;;;;3561860;40;20026;-70
2021/08/21 10:07:21;;;;;;;8.48;4.45;;;;;;;;;;3568658;40;20130;-70
2021/08/21 10:09:48;;;;;;;8.30;3.90;;;;;;;;;;3563444;40;20102;-70
2021/08/21 10:12:16;;;;;;;8.15;3.78;;;;;;;;;;3567537;40;21533;-71
2021/08/21 10:14:43;;;;;;;7.20;4.90;;;;;;;;;;3565141;40;20689;-71
2021/08/21 10:17:09;;;;;;;6.03;4.15;;;;;;;;;;3564777;40;20041;-71
2021/08/21 10:19:35;;;;;;;7.93;4.65;;;;;;;;;;3564878;40;20402;-70
2021/08/21 10:22:01;;;;;;;9.63;4.55;;;;;;;;;;3564683;40;20081;-70
2021/08/21 10:24:27;;;;;;;6.40;3.83;;;;;;;;;;3565100;40;20064;-70
2021/08/21 10:26:53;;;;;;;9.18;3.88;;;;;;;;;;3563072;40;20481;-71
2021/08/21 10:29:19;;;;;;;9.77;4.43;;;;;;;;;;3562248;40;20448;-70
2021/08/21 10:31:47;;;;;;;5.25;4.15;;;;;;;;;;3564294;40;20067;-67
2021/08/21 10:34:13;;;;;;;5.45;3.40;;;;;;;;;;3565390;40;20053;-66
2021/08/21 10:36:39;;;;;;;7.95;4.20;;;;;;;;;;3568261;40;20032;-66
2021/08/21 10:39:05;;;;;;;9.50;4.00;;;;;;;;;;3568863;40;20029;-67
2021/08/21 10:41:31;;;;;;;7.78;3.35;;;;;;;;;;3567029;40;20037;-66
2021/08/21 10:43:58;;;;;;;6.63;3.60;;;;;;;;;;3567323;40;20571;-67
2021/08/21 10:46:24;;;;;;;6.93;3.83;;;;;;;;;;3565461;40;20030;-67
2021/08/21 10:48:50;;;;;;;9.48;4.50;;;;;;;;;;3564409;40;20029;-61
2021/08/21 10:51:15;;;;;;;5.45;3.70;;;;;;;;;;3566580;40;20036;-60
2021/08/21 10:53:41;;;;;;;5.40;3.53;;;;;;;;;;3564719;40;20029;-60
2021/08/21 10:56:07;;;;;;;6.20;3.60;;;;;;;;;;3562089;40;20037;-61
2021/08/21 10:58:33;;;;;;;6.80;3.33;;;;;;;;;;3561558;40;20038;-60
2021/08/21 11:01:03;;;;;;;6.60;4.05;;;;;;;;;;3562343;40;20037;-60
2021/08/21 11:03:28;;;;;;;10.25;3.20;;;;;;;;;;3565016;40;20037;-61
2021/08/21 11:05:55;;;;;;;5.38;3.50;;;;;;;;;;3564218;40;20335;-60
2021/08/21 11:08:21;;;;;;;6.25;3.75;;;;;;;;;;3565655;40;20049;-60
2021/08/21 11:10:47;;;;;;;6.43;3.30;;;;;;;;;;3566797;40;20088;-60
2021/08/21 11:13:14;;;;;;;8.98;4.22;;;;;;;;;;3564999;40;20041;-61
2021/08/21 11:15:40;;;;;;;6.15;3.65;;;;;;;;;;3564282;40;20033;-61
2021/08/21 11:18:06;;;;;;;6.00;3.72;;;;;;;;;;3562105;40;20319;-60
2021/08/21 11:20:32;;;;;;;9.25;4.53;;;;;;;;;;3563272;40;20026;-60
2021/08/21 11:22:58;;;;;;;8.20;3.78;;;;;;;;;;3560396;40;20037;-60
2021/08/21 11:25:25;;;;;;;8.70;4.38;;;;;;;;;;3560864;40;20034;-61
2021/08/21 11:27:51;;;;;;;8.65;3.83;;;;;;;;;;3561979;40;20399;-61
2021/08/21 11:30:20;;;;;;;8.68;4.03;;;;;;;;;;3563561;40;20037;-60
2021/08/21 11:32:46;;;;;;;9.38;3.67;;;;;;;;;;3564398;40;20089;-60
2021/08/21 11:35:12;;;;;;;5.43;2.80;;;;;;;;;;3565770;40;20025;-61
2021/08/21 11:37:38;;;;;;;6.30;3.38;;;;;;;;;;3562908;40;20092;-60
2021/08/21 11:40:04;;;;;;;5.07;2.85;;;;;;;;;;3567008;40;20021;-66
2021/08/21 11:42:30;;;;;;;4.85;2.95;;;;;;;;;;3567786;40;20111;-67
2021/08/21 11:44:58;;;;;;;4.78;2.80;;;;;;;;;;3569127;40;20051;-66
2021/08/21 11:47:25;;;;;;;5.15;3.22;;;;;;;;;;3569911;40;20031;-66
2021/08/21 11:49:50;;;;;;;5.68;3.13;;;28.20;99.90;;;;;;3569802;40;20041;-67
2021/08/21 11:52:16;;;;;;;6.95;2.90;;;;;;;;;;3568795;40;20142;-66
2021/08/21 11:54:42;;;;;;;7.88;4.20;;;;;;;;;;3569850;40;20025;-67
2021/08/21 11:57:08;;;;;;;6.22;2.80;;;;;;;;;;3569159;40;20029;-66
2021/08/21 11:59:34;;;;;;;5.78;3.00;;;;;;;;;;3566924;40;20045;-66
2021/08/21 12:02:00;;;;;;;4.45;2.50;;;;;;;;;;3566396;40;20605;-66
2021/08/21 12:04:29;;;;;;;4.30;3.20;;;;;;;;;;3567554;40;20462;-67
2021/08/21 12:06:55;;;;;;;6.60;2.50;;;;;;;;;;3565186;40;20039;-67
2021/08/21 12:09:22;;;;;;;5.50;3.28;;;;;;;;;;3569225;40;20076;-67
2021/08/21 12:11:48;;;;;;;5.10;2.78;;;;;;;;;;3570849;40;20040;-67
2021/08/21 12:14:14;;;;;;;4.00;2.95;;;;;;;;;;3571213;40;20714;-67
2021/08/21 12:16:40;;;;;;;5.93;2.85;;;;;;;;;;3569660;40;20115;-67
2021/08/21 12:19:06;;;;;;;7.28;3.00;;;;;;;;;;3563082;40;20064;-67
2021/08/21 12:21:32;;;;;;;7.72;4.18;;;;;;;;;;3563595;40;20065;-67
2021/08/21 12:23:58;;;;;;;13.07;5.07;;;;;;;;;;3565932;40;20458;-67
2021/08/21 12:26:24;;;;;;;25.85;7.05;;;;;;;;;;3567203;40;20032;-67
2021/08/21 12:28:50;;;;;;;13.57;5.70;;;;;;;;;;3565825;40;20641;-67
2021/08/21 12:31:18;;;;;;;15.30;5.10;;;;;;;;;;3565084;40;20591;-67
2021/08/21 12:33:44;;;;;;;13.57;5.40;;;;;;;;;;3565328;40;20033;-67
2021/08/21 12:36:10;;;;;;;23.27;6.32;;;;;;;;;;3563816;40;20025;-67
2021/08/21 12:38:36;;;;;;;12.23;5.15;;;;;;;;;;3567458;40;20036;-67
2021/08/21 12:41:02;;;;;;;14.63;5.22;;;;;;;;;;3572410;40;20033;-68
2021/08/21 12:43:28;;;;;;;17.05;5.22;;;;;;;;;;3570905;40;20041;-67
2021/08/21 12:45:54;;;;;;;23.33;5.80;;;;;;;;;;3570167;40;20051;-67
2021/08/21 12:48:20;;;;;;;14.48;6.00;;;;;;;;;;3569092;40;20130;-69
2021/08/21 12:50:46;;;;;;;11.90;5.15;;;;;;;;;;3567921;40;20403;-69
2021/08/21 12:53:12;;;;;;;16.15;5.90;;;;;;;;;;3566896;40;20044;-68
2021/08/21 12:55:38;;;;;;;12.18;5.10;;;;;;;;;;3566610;40;20146;-69
2021/08/21 12:58:04;;;;;;;16.00;5.95;;;;;;;;;;3569394;40;20063;-69
2021/08/21 13:00:30;;;;;;;18.65;6.22;;;;;;;;;;3566259;40;20427;-70
2021/08/21 13:02:56;;;;;;;19.65;6.03;;;;;;;;;;3563951;40;20022;-70
2021/08/21 13:05:29;;;;;;;21.92;6.35;;;;;;;;;;3563368;40;20037;-70
2021/08/21 13:07:55;;;;;;;23.92;8.27;;;;;;;;;;3563102;40;20049;-69
2021/08/21 13:10:21;;;;;;;19.00;6.53;;;;;;;;;;3566074;40;20099;-70
2021/08/21 13:12:47;;;;;;;13.48;5.30;;;;;;;;;;3570041;40;20038;-69
2021/08/21 13:15:13;;;;;;;12.55;4.40;;;;;;;;;;3568131;40;20056;-69
2021/08/21 13:17:39;;;;;;;14.57;5.72;;;;;;;;;;3568325;40;20022;-69
2021/08/21 13:20:05;;;;;;;20.48;6.43;;;;;;;;;;3566608;40;20432;-69
2021/08/21 13:22:31;;;;;;;25.98;6.72;;;;;;;;;;3566063;40;20040;-69
2021/08/21 13:24:57;;;;;;;28.65;6.65;;;;;;;;;;3565553;40;20036;-69
2021/08/21 13:27:23;;;;;;;38.45;8.40;;;;;;;;;;3564476;40;20061;-69
2021/08/21 13:29:49;;;;;;;36.90;8.18;;;;;;;;;;3562540;40;20472;-69
2021/08/21 13:32:15;;;;;;;31.88;7.72;;;;;;;;;;3562412;40;20033;-69
2021/08/21 13:34:41;;;;;;;32.92;7.47;;;;;;;;;;3564765;40;20504;-70
2021/08/21 13:37:07;;;;;;;39.80;10.40;;;;;;;;;;3563133;40;20021;-70
2021/08/21 13:39:33;;;;;;;31.70;6.93;;;;;;;;;;3570018;40;20280;-69
2021/08/21 13:41:59;;;;;;;30.00;8.95;;;;;;;;;;3565781;40;20067;-70
2021/08/21 13:44:25;;;;;;;28.25;6.57;;;;;;;;;;3565032;40;20029;-68
2021/08/21 13:46:51;;;;;;;25.42;6.88;;;;;;;;;;3564709;40;20033;-70
2021/08/21 13:49:18;;;;;;;27.38;6.90;;;;;;;;;;3565878;40;20052;-70
2021/08/21 13:51:44;;;;;;;27.42;6.28;;;;;;;;;;3565690;40;20045;-70
2021/08/21 13:54:10;;;;;;;25.08;5.68;;;;;;;;;;3567541;40;20032;-69
2021/08/21 13:56:36;;;;;;;19.05;5.68;;;;;;;;;;3565734;40;20311;-70
2021/08/21 13:59:02;;;;;;;16.88;5.57;;;;;;;;;;3564759;40;20100;-69
2021/08/21 14:01:28;;;;;;;15.32;5.38;;;;;;;;;;3566527;40;20069;-69
2021/08/21 14:03:54;;;;;;;17.33;5.82;;;;;;;;;;3564572;40;20037;-70
2021/08/21 14:06:20;;;;;;;18.38;5.70;;;;;;;;;;3566030;40;20056;-71
2021/08/21 14:08:46;;;;;;;17.67;5.38;;;;;;;;;;3568051;40;20041;-70
2021/08/21 14:11:12;;;;;;;11.18;4.57;;;;;;;;;;3565921;40;20092;-71
2021/08/21 14:13:38;;;;;;;8.52;3.65;;;;;;;;;;3565707;40;20490;-69
2021/08/21 14:16:04;;;;;;;11.88;4.18;;;;;;;;;;3564918;40;20088;-70
2021/08/21 14:18:30;;;;;;;10.32;4.30;;;;;;;;;;3564279;40;20037;-67
2021/08/21 14:20:56;;;;;;;16.23;4.50;;;;;;;;;;3562861;40;20033;-67
2021/08/21 14:23:22;;;;;;;6.78;3.58;;;;;;;;;;3565812;40;20041;-67
2021/08/21 14:25:48;;;;;;;8.38;3.63;;;;;;;;;;3562017;40;20041;-67
2021/08/21 14:28:14;;;;;;;5.90;2.80;;;;;;;;;;3563520;40;20037;-67